Terminal Aerodrome Forecast
Issued by NWS Atlanta, GA

Home | Current Version | Previous Version | Text Only | Print | Product List | Glossary On
Versions: 1 2 3 4 5 6 7 8 9 10 11 12 13 14 15 16 17 18 19 20 21 22 23 24 25 26 27 28 29 30 31 32 33 34 35 36 37 38
000
FTUS42 KFFC 180900 AAB
TAFATL
TAF AMD
KATL 180931Z 1810/1912 07010KT P6SM OVC040
     FM181300 07012KT P6SM -RA BKN025
     FM181600 06014G22KT 5SM SHRA OVC015
     FM182200 05014G24KT 4SM SHRA BR OVC008
     FM190200 05018G28KT 2SM SHRA BR OVC008=

USA.gov is the U.S. government's official web portal to all federal, state and local government web resources and services.